createdAt,value
2018-06-01T00:00:22.878Z,18.53
2018-06-01T00:02:48.668Z,18.90
2018-06-01T00:05:14.440Z,20.23
2018-06-01T00:07:40.240Z,20.07
2018-06-01T00:10:06.031Z,18.40
2018-06-01T00:12:31.814Z,16.80
2018-06-01T00:14:57.594Z,17.23
2018-06-01T00:17:23.387Z,18.10
2018-06-01T00:19:49.175Z,17.23
2018-06-01T00:22:14.995Z,17.83
2018-06-01T00:24:40.795Z,18.50
2018-06-01T00:27:06.588Z,18.13
2018-06-01T00:29:32.397Z,20.63
2018-06-01T00:31:58.201Z,18.53
2018-06-01T00:34:24.014Z,17.60
2018-06-01T00:36:49.799Z,18.33
2018-06-01T00:39:15.582Z,17.87
2018-06-01T00:41:41.363Z,18.77
2018-06-01T00:44:07.150Z,17.87
2018-06-01T00:46:32.923Z,18.33
2018-06-01T00:48:58.738Z,19.10
2018-06-01T00:51:24.532Z,18.60
2018-06-01T00:53:50.316Z,18.40
2018-06-01T00:56:16.106Z,18.90
2018-06-01T00:58:41.875Z,18.10
2018-06-01T01:01:07.695Z,18.07
2018-06-01T01:03:33.486Z,18.97
2018-06-01T01:05:59.298Z,18.33
2018-06-01T01:08:25.100Z,18.47
2018-06-01T01:10:50.904Z,18.43
2018-06-01T01:13:16.677Z,19.13
2018-06-01T01:15:42.497Z,18.27
2018-06-01T01:18:08.271Z,17.40
2018-06-01T01:20:34.067Z,19.13
2018-06-01T01:22:59.883Z,18.70
2018-06-01T01:25:25.665Z,18.67
2018-06-01T01:27:51.455Z,18.00
2018-06-01T01:30:17.246Z,18.03
2018-06-01T01:32:43.056Z,18.30
2018-06-01T01:35:08.846Z,18.27
2018-06-01T01:37:34.646Z,19.63
2018-06-01T01:40:00.440Z,20.17
2018-06-01T01:42:26.264Z,18.33
2018-06-01T01:44:52.062Z,17.90
2018-06-01T01:47:17.860Z,17.77
2018-06-01T01:49:43.658Z,18.87
2018-06-01T01:52:09.448Z,18.97
2018-06-01T01:54:35.251Z,18.87
2018-06-01T01:57:01.011Z,19.13
2018-06-01T01:59:26.807Z,18.63
2018-06-01T02:01:52.594Z,20.10
2018-06-01T02:04:18.391Z,20.03
2018-06-01T02:06:44.192Z,19.83
2018-06-01T02:09:09.994Z,19.57
2018-06-01T02:11:35.781Z,20.23
2018-06-01T02:14:01.572Z,18.43
2018-06-01T02:16:27.364Z,20.47
2018-06-01T02:18:53.150Z,19.57
2018-06-01T02:21:18.936Z,20.27
2018-06-01T02:23:44.710Z,19.23
2018-06-01T02:26:10.498Z,19.33
2018-06-01T02:28:36.287Z,20.80
2018-06-01T02:31:02.088Z,19.73
2018-06-01T02:33:27.884Z,20.07
2018-06-01T02:35:53.690Z,20.07
2018-06-01T02:38:19.484Z,21.80
2018-06-01T02:40:45.288Z,21.07
2018-06-01T02:43:12.101Z,21.77
2018-06-01T02:45:37.885Z,21.50
2018-06-01T02:48:03.675Z,21.07
2018-06-01T02:50:29.476Z,22.10
2018-06-01T02:52:55.276Z,20.53
2018-06-01T02:55:21.055Z,19.93
2018-06-01T02:57:46.843Z,20.30
2018-06-01T03:00:12.643Z,21.07
2018-06-01T03:02:38.450Z,20.63
2018-06-01T03:05:04.214Z,21.60
2018-06-01T03:07:30.020Z,20.60
2018-06-01T03:09:55.805Z,20.30
2018-06-01T03:12:21.585Z,20.07
2018-06-01T03:14:47.367Z,20.60
2018-06-01T03:17:13.149Z,20.67
2018-06-01T03:19:38.944Z,19.80
2018-06-01T03:22:04.730Z,20.33
2018-06-01T03:24:30.520Z,20.17
2018-06-01T03:26:56.292Z,19.70
2018-06-01T03:29:22.080Z,19.47
2018-06-01T03:31:47.889Z,20.47
2018-06-01T03:34:13.680Z,20.83
2018-06-01T03:36:39.479Z,24.10
2018-06-01T03:39:05.294Z,21.47
2018-06-01T03:41:31.088Z,20.83
2018-06-01T03:43:56.889Z,19.90
2018-06-01T03:46:22.675Z,21.40
2018-06-01T03:48:48.471Z,19.77
2018-06-01T03:51:14.268Z,20.23
2018-06-01T03:53:41.770Z,19.67
2018-06-01T03:56:07.563Z,19.13
2018-06-01T03:58:33.336Z,19.33
2018-06-01T04:00:59.151Z,18.70
2018-06-01T04:03:24.953Z,19.60
2018-06-01T04:05:50.744Z,19.43
2018-06-01T04:08:16.523Z,19.10
2018-06-01T04:10:42.299Z,18.13
2018-06-01T04:13:08.083Z,18.63
2018-06-01T04:15:33.871Z,18.20
2018-06-01T04:17:59.675Z,18.23
2018-06-01T04:20:25.458Z,17.97
2018-06-01T04:22:51.269Z,18.30
2018-06-01T04:25:17.069Z,17.47
2018-06-01T04:27:42.894Z,17.73
2018-06-01T04:30:08.684Z,18.50
2018-06-01T04:32:34.512Z,16.83
2018-06-01T04:35:00.306Z,17.63
2018-06-01T04:37:26.120Z,17.20
2018-06-01T04:39:51.901Z,16.60
2018-06-01T04:42:17.678Z,15.70
2018-06-01T04:44:43.471Z,18.13
2018-06-01T04:47:09.280Z,17.00
2018-06-01T04:49:35.088Z,17.70
2018-06-01T04:52:00.874Z,16.80
2018-06-01T04:54:26.673Z,18.03
2018-06-01T04:56:52.468Z,18.20
2018-06-01T04:59:18.271Z,17.57
2018-06-01T05:01:44.059Z,18.37
2018-06-01T05:04:09.857Z,18.23
2018-06-01T05:06:35.655Z,16.37
2018-06-01T05:09:01.485Z,15.80
2018-06-01T05:11:27.327Z,16.23
2018-06-01T05:13:53.090Z,17.30
2018-06-01T05:16:18.894Z,17.17
2018-06-01T05:18:44.680Z,17.20
2018-06-01T05:21:10.465Z,17.67
2018-06-01T05:23:36.237Z,18.07
2018-06-01T05:26:02.051Z,16.63
2018-06-01T05:28:27.872Z,17.43
2018-06-01T05:30:53.667Z,16.33
2018-06-01T05:33:19.491Z,15.83
2018-06-01T05:35:45.284Z,16.17
2018-06-01T05:38:11.090Z,15.87
2018-06-01T05:40:36.905Z,16.60
2018-06-01T05:43:02.750Z,15.10
2018-06-01T05:45:28.638Z,16.90
2018-06-01T05:47:54.474Z,17.07
2018-06-01T05:50:20.249Z,15.27
2018-06-01T05:52:46.046Z,14.77
2018-06-01T05:55:11.840Z,16.60
2018-06-01T05:57:37.622Z,15.70
2018-06-01T06:00:03.415Z,15.30
2018-06-01T06:02:29.222Z,14.77
2018-06-01T06:04:55.018Z,15.73
2018-06-01T06:07:20.825Z,13.53
2018-06-01T06:09:46.612Z,13.53
2018-06-01T06:12:12.406Z,13.30
2018-06-01T06:14:38.218Z,15.67
2018-06-01T06:17:03.995Z,14.30
2018-06-01T06:19:29.798Z,12.80
2018-06-01T06:21:55.566Z,12.83
2018-06-01T06:24:21.358Z,12.47
2018-06-01T06:26:47.145Z,11.83
2018-06-01T06:29:12.918Z,13.60
2018-06-01T06:31:38.712Z,12.13
2018-06-01T06:34:04.501Z,12.13
2018-06-01T06:36:30.299Z,11.83
2018-06-01T06:38:56.084Z,11.60
2018-06-01T06:41:21.905Z,12.07
2018-06-01T06:43:47.687Z,11.63
2018-06-01T06:46:13.482Z,11.17
2018-06-01T06:48:39.279Z,11.30
2018-06-01T06:51:05.084Z,9.83
2018-06-01T06:53:30.860Z,11.07
2018-06-01T06:55:56.651Z,10.37
2018-06-01T06:58:22.461Z,11.30
2018-06-01T07:00:48.235Z,11.53
2018-06-01T07:03:14.027Z,10.63
2018-06-01T07:05:39.807Z,12.67
2018-06-01T07:08:05.597Z,11.93
2018-06-01T07:10:31.433Z,11.40
2018-06-01T07:12:57.216Z,11.50
2018-06-01T07:15:23.016Z,11.33
2018-06-01T07:17:48.813Z,11.63
2018-06-01T07:20:16.176Z,11.60
2018-06-01T07:22:41.949Z,12.40
2018-06-01T07:25:07.721Z,11.20
2018-06-01T07:27:33.506Z,11.37
2018-06-01T07:29:59.333Z,11.60
2018-06-01T07:32:25.133Z,10.67
2018-06-01T07:34:50.921Z,11.20
2018-06-01T07:37:16.736Z,11.90
2018-06-01T07:39:42.504Z,10.90
2018-06-01T07:42:08.301Z,12.30
2018-06-01T07:44:34.085Z,12.13
2018-06-01T07:46:59.945Z,12.13
2018-06-01T07:49:25.666Z,12.50
2018-06-01T07:51:51.483Z,10.10
2018-06-01T07:54:17.274Z,10.77
2018-06-01T07:56:43.069Z,11.10
2018-06-01T07:59:08.875Z,10.10
2018-06-01T08:01:34.662Z,9.97
2018-06-01T08:04:00.444Z,11.33
2018-06-01T08:06:26.233Z,11.37
2018-06-01T08:08:52.062Z,11.13
2018-06-01T08:11:17.834Z,10.70
2018-06-01T08:13:43.620Z,9.67
2018-06-01T08:16:09.396Z,10.97
2018-06-01T08:18:35.199Z,10.80
2018-06-01T08:21:00.996Z,10.37
2018-06-01T08:23:26.803Z,8.90
2018-06-01T08:25:52.599Z,8.43
2018-06-01T08:28:18.425Z,10.50
2018-06-01T08:30:44.217Z,8.80
2018-06-01T08:33:10.017Z,9.47
2018-06-01T08:35:35.806Z,8.57
2018-06-01T08:38:01.591Z,8.27
2018-06-01T08:40:27.407Z,8.70
2018-06-01T08:42:53.201Z,10.07
2018-06-01T08:45:20.554Z,9.23
2018-06-01T08:47:46.348Z,9.73
2018-06-01T08:50:12.158Z,12.13
2018-06-01T08:52:37.938Z,11.33
2018-06-01T08:55:03.733Z,11.00
2018-06-01T08:57:29.558Z,11.70
2018-06-01T08:59:55.351Z,10.30
2018-06-01T09:02:21.145Z,11.13
2018-06-01T09:04:46.927Z,11.10
2018-06-01T09:07:12.726Z,12.03
2018-06-01T09:09:38.510Z,12.93
2018-06-01T09:12:04.295Z,14.13
2018-06-01T09:14:30.082Z,13.17
2018-06-01T09:16:55.871Z,13.73
2018-06-01T09:19:21.718Z,14.87
2018-06-01T09:21:47.486Z,13.17
2018-06-01T09:24:13.280Z,13.57
2018-06-01T09:26:39.060Z,15.10
2018-06-01T09:29:04.841Z,13.03
2018-06-01T09:31:30.632Z,13.67
2018-06-01T09:33:56.421Z,14.57
2018-06-01T09:36:22.202Z,15.07
2018-06-01T09:38:47.987Z,15.17
2018-06-01T09:41:13.779Z,14.43
2018-06-01T09:43:39.567Z,12.77
2018-06-01T09:46:05.367Z,14.43
2018-06-01T09:48:31.185Z,12.30
2018-06-01T09:50:56.983Z,11.30
2018-06-01T09:53:22.766Z,10.33
2018-06-01T09:55:48.559Z,10.07
2018-06-01T09:58:14.330Z,10.07
2018-06-01T10:00:46.225Z,11.90
2018-06-01T10:03:12.020Z,11.70
2018-06-01T10:05:37.845Z,9.60
2018-06-01T10:08:03.631Z,8.23
2018-06-01T10:10:35.305Z,8.60
2018-06-01T10:13:01.114Z,7.13
2018-06-01T10:15:26.901Z,8.10
2018-06-01T10:17:52.692Z,7.73
2018-06-01T10:20:18.463Z,8.27
2018-06-01T10:22:44.261Z,7.70
2018-06-01T10:25:10.054Z,8.17
2018-06-01T10:27:35.856Z,6.57
2018-06-01T10:30:01.629Z,6.87
2018-06-01T10:32:27.427Z,7.17
2018-06-01T10:34:53.224Z,8.37
2018-06-01T10:37:19.022Z,7.20
2018-06-01T10:39:44.817Z,7.20
2018-06-01T10:42:10.611Z,6.70
2018-06-01T10:44:36.416Z,6.90
2018-06-01T10:47:02.218Z,6.73
2018-06-01T10:49:28.040Z,6.63
2018-06-01T10:51:53.825Z,6.60
2018-06-01T10:54:19.634Z,6.10
2018-06-01T10:56:45.415Z,6.10
2018-06-01T10:59:11.212Z,6.60
2018-06-01T11:01:37.086Z,6.00
2018-06-01T11:04:02.833Z,6.07
2018-06-01T11:06:28.622Z,6.10
2018-06-01T11:08:54.417Z,5.57
2018-06-01T11:11:20.233Z,5.53
2018-06-01T11:13:46.034Z,5.47
2018-06-01T11:16:11.842Z,5.87
2018-06-01T11:18:38.485Z,5.70
2018-06-01T11:21:04.317Z,5.80
2018-06-01T11:23:30.120Z,5.67
2018-06-01T11:25:55.891Z,5.97
2018-06-01T11:28:21.678Z,5.80
2018-06-01T11:30:47.444Z,6.87
2018-06-01T11:33:13.273Z,6.67
2018-06-01T11:35:39.059Z,6.43
2018-06-01T11:38:04.856Z,7.40
2018-06-01T11:40:30.659Z,7.50
2018-06-01T11:42:56.453Z,8.10
2018-06-01T11:45:22.334Z,8.47
2018-06-01T11:47:48.135Z,9.40
2018-06-01T11:50:13.932Z,10.13
2018-06-01T11:52:39.709Z,10.60
2018-06-01T11:55:05.521Z,9.73
2018-06-01T11:57:31.334Z,9.63
2018-06-01T11:59:57.107Z,8.47
2018-06-01T12:02:22.915Z,8.23
2018-06-01T12:04:48.693Z,8.07
2018-06-01T12:07:14.488Z,7.83
2018-06-01T12:09:40.281Z,7.90
2018-06-01T12:12:06.076Z,8.00
2018-06-01T12:14:31.873Z,7.33
2018-06-01T12:16:57.692Z,8.30
2018-06-01T12:19:23.463Z,8.23
2018-06-01T12:21:49.243Z,8.20
2018-06-01T12:24:15.061Z,8.30
2018-06-01T12:26:40.849Z,7.70
2018-06-01T12:29:06.657Z,7.73
2018-06-01T12:31:32.472Z,8.10
2018-06-01T12:33:58.280Z,7.30
2018-06-01T12:36:24.059Z,7.53
2018-06-01T12:38:49.855Z,7.67
2018-06-01T12:41:15.933Z,8.70
2018-06-01T12:43:41.747Z,8.40
2018-06-01T12:46:07.543Z,8.87
2018-06-01T12:48:33.344Z,9.07
2018-06-01T12:50:59.147Z,8.50
2018-06-01T12:53:24.929Z,8.47
2018-06-01T12:55:50.732Z,8.77
2018-06-01T12:58:16.507Z,8.13
2018-06-01T13:00:42.313Z,7.77
2018-06-01T13:03:08.078Z,8.53
2018-06-01T13:05:34.643Z,8.13
2018-06-01T13:08:00.439Z,8.20
2018-06-01T13:10:26.233Z,9.37
2018-06-01T13:12:52.066Z,8.33
2018-06-01T13:15:17.912Z,8.30
2018-06-01T13:17:43.685Z,8.47
2018-06-01T13:20:09.478Z,8.27
2018-06-01T13:22:35.288Z,10.03
2018-06-01T13:25:01.078Z,9.67
2018-06-01T13:27:26.875Z,10.33
2018-06-01T13:29:52.747Z,9.33
2018-06-01T13:32:18.542Z,9.33
2018-06-01T13:34:44.367Z,9.90
2018-06-01T13:37:10.178Z,9.10
2018-06-01T13:39:35.978Z,8.87
2018-06-01T13:42:01.788Z,8.87
2018-06-01T13:44:27.586Z,8.40
2018-06-01T13:46:53.364Z,8.60
2018-06-01T13:49:19.134Z,7.33
2018-06-01T13:51:44.953Z,6.73
2018-06-01T13:54:10.750Z,7.03
2018-06-01T13:56:36.564Z,7.73
2018-06-01T13:59:02.395Z,6.73
2018-06-01T14:01:28.207Z,6.87
2018-06-01T14:03:54.013Z,7.00
2018-06-01T14:06:19.837Z,6.20
2018-06-01T14:08:45.648Z,7.00
2018-06-01T14:11:11.883Z,6.50
2018-06-01T14:13:37.697Z,6.17
2018-06-01T14:16:03.477Z,6.17
2018-06-01T14:18:29.290Z,5.90
2018-06-01T14:20:55.103Z,5.82
2018-06-01T14:23:20.922Z,6.07
2018-06-01T14:25:46.719Z,6.15
2018-06-01T14:28:12.528Z,6.07
2018-06-01T14:30:38.318Z,6.75
2018-06-01T14:33:04.140Z,5.68
2018-06-01T14:35:29.952Z,5.37
2018-06-01T14:37:55.768Z,5.50
2018-06-01T14:40:21.584Z,6.10
2018-06-01T14:42:47.394Z,5.62
2018-06-01T14:45:13.228Z,5.55
2018-06-01T14:47:39.061Z,5.43
2018-06-01T14:50:04.884Z,5.93
2018-06-01T14:52:30.694Z,5.80
2018-06-01T14:54:56.510Z,6.40
2018-06-01T14:57:22.292Z,6.18
2018-06-01T14:59:48.113Z,6.40
2018-06-01T15:02:13.915Z,6.05
2018-06-01T15:04:39.722Z,6.43
2018-06-01T15:07:05.530Z,7.18
2018-06-01T15:09:31.320Z,6.12
2018-06-01T15:11:57.140Z,6.45
2018-06-01T15:14:22.939Z,7.15
2018-06-01T15:16:48.740Z,6.37
2018-06-01T15:19:14.518Z,6.12
2018-06-01T15:21:40.346Z,6.18
2018-06-01T15:24:06.127Z,6.10
2018-06-01T15:26:31.909Z,5.68
2018-06-01T15:28:57.728Z,6.70
2018-06-01T15:31:23.508Z,6.67
2018-06-01T15:33:49.348Z,7.23
2018-06-01T15:36:15.122Z,6.27
2018-06-01T15:38:40.948Z,6.57
2018-06-01T15:41:06.803Z,6.27
2018-06-01T15:43:32.589Z,5.73
2018-06-01T15:45:58.387Z,6.00
2018-06-01T15:48:24.212Z,5.30
2018-06-01T15:50:50.001Z,5.70
2018-06-01T15:53:15.784Z,6.20
2018-06-01T15:55:41.578Z,6.03
2018-06-01T15:58:07.411Z,5.93
2018-06-01T16:00:33.269Z,6.30
2018-06-01T16:02:59.074Z,6.73
2018-06-01T16:05:24.895Z,6.53
2018-06-01T16:07:50.691Z,5.87
2018-06-01T16:10:16.513Z,6.43
2018-06-01T16:12:42.352Z,5.83
2018-06-01T16:15:08.141Z,6.33
2018-06-01T16:17:33.938Z,5.53
2018-06-01T16:19:59.748Z,6.20
2018-06-01T16:22:25.555Z,5.57
2018-06-01T16:24:51.370Z,6.13
2018-06-01T16:27:17.231Z,5.57
2018-06-01T16:29:43.036Z,6.07
2018-06-01T16:32:08.886Z,5.90
2018-06-01T16:34:34.672Z,5.43
2018-06-01T16:37:00.540Z,6.47
2018-06-01T16:39:26.320Z,6.37
2018-06-01T16:41:52.120Z,6.37
2018-06-01T16:44:17.934Z,6.17
2018-06-01T16:46:43.726Z,6.07
2018-06-01T16:49:09.536Z,6.30
2018-06-01T16:51:35.388Z,6.30
2018-06-01T16:54:01.213Z,6.73
2018-06-01T16:56:27.017Z,6.70
2018-06-01T16:58:52.837Z,6.20
2018-06-01T17:01:18.663Z,6.83
2018-06-01T17:03:44.493Z,6.50
2018-06-01T17:06:10.313Z,6.30
2018-06-01T17:08:36.137Z,6.17
2018-06-01T17:11:01.933Z,5.90
2018-06-01T17:13:30.855Z,6.60
2018-06-01T17:15:56.690Z,6.30
2018-06-01T17:18:22.472Z,6.37
2018-06-01T17:20:48.335Z,6.07
2018-06-01T17:23:14.137Z,6.00
2018-06-01T17:25:39.943Z,7.30
2018-06-01T17:28:05.726Z,6.93
2018-06-01T17:30:31.519Z,7.00
2018-06-01T17:32:57.331Z,6.73
2018-06-01T17:35:23.161Z,7.10
2018-06-01T17:37:50.160Z,6.90
2018-06-01T17:40:15.967Z,7.33
2018-06-01T17:42:41.764Z,6.97
2018-06-01T17:45:07.551Z,7.40
2018-06-01T17:47:33.345Z,6.93
2018-06-01T17:49:59.133Z,7.60
2018-06-01T17:52:24.940Z,8.23
2018-06-01T17:54:50.755Z,7.03
2018-06-01T17:57:16.586Z,9.53
2018-06-01T17:59:42.436Z,8.57
2018-06-01T18:02:08.249Z,8.37
2018-06-01T18:04:34.182Z,8.50
2018-06-01T18:07:00.060Z,8.03
2018-06-01T18:09:25.872Z,8.07
2018-06-01T18:11:51.685Z,7.97
2018-06-01T18:14:17.516Z,8.50
2018-06-01T18:16:43.294Z,7.90
2018-06-01T18:19:09.102Z,8.33
2018-06-01T18:21:34.912Z,8.27
2018-06-01T18:24:00.729Z,8.10
2018-06-01T18:26:26.534Z,9.27
2018-06-01T18:28:52.384Z,7.90
2018-06-01T18:31:18.228Z,8.63
2018-06-01T18:33:44.040Z,8.10
2018-06-01T18:36:09.867Z,9.00
2018-06-01T18:38:35.703Z,8.87
2018-06-01T18:41:01.525Z,9.93
2018-06-01T18:43:27.312Z,9.43
2018-06-01T18:45:53.141Z,9.07
2018-06-01T18:48:18.906Z,9.50
2018-06-01T18:50:44.749Z,8.93
2018-06-01T18:53:10.563Z,7.77
2018-06-01T18:55:36.361Z,8.17
2018-06-01T18:58:02.163Z,9.67
2018-06-01T19:00:27.929Z,9.00
2018-06-01T19:02:53.737Z,9.43
2018-06-01T19:05:19.594Z,9.43
2018-06-01T19:07:45.484Z,9.27
2018-06-01T19:10:11.337Z,8.97
2018-06-01T19:12:37.713Z,9.20
2018-06-01T19:15:03.508Z,9.53
2018-06-01T19:17:29.422Z,10.37
2018-06-01T19:19:55.248Z,9.63
2018-06-01T19:22:21.058Z,9.00
2018-06-01T19:24:47.684Z,10.27
2018-06-01T19:27:13.524Z,8.90
2018-06-01T19:29:39.370Z,8.53
2018-06-01T19:32:05.217Z,9.33
2018-06-01T19:34:31.125Z,9.07
2018-06-01T19:36:56.939Z,9.00
2018-06-01T19:39:24.206Z,9.40
2018-06-01T19:41:50.050Z,9.30
2018-06-01T19:44:16.186Z,9.33
2018-06-01T19:46:42.028Z,9.70
2018-06-01T19:49:07.852Z,9.87
2018-06-01T19:51:33.664Z,8.90
2018-06-01T19:53:59.492Z,9.60
2018-06-01T19:56:25.326Z,9.70
2018-06-01T19:58:51.186Z,9.27
2018-06-01T20:01:17.030Z,8.93
2018-06-01T20:03:42.834Z,9.87
2018-06-01T20:06:08.638Z,9.30
2018-06-01T20:08:34.434Z,9.57
2018-06-01T20:11:00.281Z,10.60
2018-06-01T20:13:26.162Z,10.10
2018-06-01T20:15:52.249Z,10.53
2018-06-01T20:18:18.023Z,10.33
2018-06-01T20:20:43.823Z,9.93
2018-06-01T20:23:09.633Z,10.30
2018-06-01T20:25:35.461Z,10.10
2018-06-01T20:28:01.303Z,10.13
2018-06-01T20:30:27.105Z,11.07
2018-06-01T20:32:52.964Z,10.30
2018-06-01T20:35:18.793Z,10.20
2018-06-01T20:37:44.590Z,9.33
2018-06-01T20:40:10.423Z,11.07
2018-06-01T20:42:36.241Z,9.90
2018-06-01T20:45:02.068Z,9.80
2018-06-01T20:47:27.952Z,10.20
2018-06-01T20:49:53.794Z,10.63
2018-06-01T20:52:19.627Z,10.70
2018-06-01T20:54:46.338Z,11.07
2018-06-01T20:57:12.886Z,11.10
2018-06-01T20:59:38.730Z,11.30
2018-06-01T21:02:04.552Z,11.37
2018-06-01T21:04:30.366Z,10.63
2018-06-01T21:06:56.143Z,11.37
2018-06-01T21:09:21.962Z,11.57
2018-06-01T21:11:47.797Z,12.00
2018-06-01T21:14:13.658Z,11.13
2018-06-01T21:16:39.479Z,11.50
2018-06-01T21:19:05.298Z,13.57
2018-06-01T21:21:31.145Z,13.83
2018-06-01T21:23:56.975Z,14.10
2018-06-01T21:26:22.861Z,14.17
2018-06-01T21:28:48.663Z,14.33
2018-06-01T21:31:14.481Z,12.77
2018-06-01T21:33:40.314Z,13.07
2018-06-01T21:36:06.107Z,12.73
2018-06-01T21:38:31.945Z,14.13
2018-06-01T21:40:57.736Z,12.83
2018-06-01T21:43:23.575Z,14.23
2018-06-01T21:45:49.373Z,13.67
2018-06-01T21:48:15.197Z,14.07
2018-06-01T21:50:40.986Z,16.00
2018-06-01T21:53:06.795Z,16.90
2018-06-01T21:55:32.600Z,16.83
2018-06-01T21:57:58.399Z,16.50
2018-06-01T22:00:24.189Z,16.90
2018-06-01T22:02:49.995Z,15.60
2018-06-01T22:05:15.807Z,16.77
2018-06-01T22:07:41.627Z,15.83
2018-06-01T22:10:07.436Z,16.13
2018-06-01T22:12:33.239Z,16.77
2018-06-01T22:14:59.029Z,16.87
2018-06-01T22:17:24.825Z,15.87
2018-06-01T22:19:50.650Z,17.77
2018-06-01T22:22:16.467Z,16.53
2018-06-01T22:24:42.300Z,16.27
2018-06-01T22:27:08.085Z,17.23
2018-06-01T22:29:33.904Z,17.37
2018-06-01T22:31:59.712Z,17.93
2018-06-01T22:34:25.529Z,19.00
2018-06-01T22:36:51.293Z,18.80
2018-06-01T22:39:17.134Z,18.23
2018-06-01T22:41:42.940Z,16.67
2018-06-01T22:44:08.746Z,17.83
2018-06-01T22:46:34.554Z,17.23
2018-06-01T22:49:00.340Z,17.40
2018-06-01T22:51:26.140Z,17.63
2018-06-01T22:53:51.914Z,17.63
2018-06-01T22:56:17.704Z,17.33
2018-06-01T22:58:43.516Z,17.93
2018-06-01T23:01:09.325Z,17.50
2018-06-01T23:03:35.108Z,16.83
2018-06-01T23:06:00.915Z,18.60
2018-06-01T23:08:26.695Z,18.03
2018-06-01T23:10:53.303Z,16.87
2018-06-01T23:13:19.075Z,18.57
2018-06-01T23:15:44.851Z,17.20
2018-06-01T23:18:10.656Z,15.83
2018-06-01T23:20:36.446Z,15.40
2018-06-01T23:23:02.243Z,14.80
2018-06-01T23:25:28.040Z,14.37
2018-06-01T23:27:53.854Z,14.73
2018-06-01T23:30:19.639Z,13.83
2018-06-01T23:32:45.433Z,15.77
2018-06-01T23:35:11.228Z,14.10
2018-06-01T23:37:37.030Z,14.50
2018-06-01T23:40:02.818Z,14.07
2018-06-01T23:42:28.630Z,13.30
2018-06-01T23:44:54.444Z,14.20
2018-06-01T23:47:20.203Z,12.77
2018-06-01T23:49:45.995Z,14.37
2018-06-01T23:52:11.788Z,15.07
2018-06-01T23:54:37.566Z,14.33
2018-06-01T23:57:03.345Z,13.43
2018-06-01T23:59:29.167Z,13.17
